sensor_id;sensor_type;location;lat;lon;timestamp;P1;durP1;ratioP1;P2;durP2;ratioP2
20705;SDS011;10514;49.468;11.044;2023-02-12T00:00:12;34.63;;;17.83;;
20705;SDS011;10514;49.468;11.044;2023-02-12T00:02:39;34.93;;;19.17;;
20705;SDS011;10514;49.468;11.044;2023-02-12T00:05:05;34.27;;;18.57;;
20705;SDS011;10514;49.468;11.044;2023-02-12T00:07:31;34.60;;;18.27;;
20705;SDS011;10514;49.468;11.044;2023-02-12T00:09:57;35.43;;;18.43;;
20705;SDS011;10514;49.468;11.044;2023-02-12T00:12:23;36.33;;;19.13;;
20705;SDS011;10514;49.468;11.044;2023-02-12T00:14:49;32.27;;;17.53;;
20705;SDS011;10514;49.468;11.044;2023-02-12T00:17:15;32.73;;;17.97;;
20705;SDS011;10514;49.468;11.044;2023-02-12T00:19:41;33.43;;;18.63;;
20705;SDS011;10514;49.468;11.044;2023-02-12T00:22:08;37.57;;;19.17;;
20705;SDS011;10514;49.468;11.044;2023-02-12T00:24:34;37.07;;;20.60;;
20705;SDS011;10514;49.468;11.044;2023-02-12T00:26:59;36.30;;;20.90;;
20705;SDS011;10514;49.468;11.044;2023-02-12T00:29:25;33.73;;;18.43;;
20705;SDS011;10514;49.468;11.044;2023-02-12T00:31:51;36.27;;;21.13;;
20705;SDS011;10514;49.468;11.044;2023-02-12T00:34:17;37.40;;;19.73;;
20705;SDS011;10514;49.468;11.044;2023-02-12T00:36:43;35.97;;;19.63;;
20705;SDS011;10514;49.468;11.044;2023-02-12T00:39:09;32.60;;;19.53;;
20705;SDS011;10514;49.468;11.044;2023-02-12T00:41:35;39.63;;;19.47;;
20705;SDS011;10514;49.468;11.044;2023-02-12T00:44:02;40.80;;;20.03;;
20705;SDS011;10514;49.468;11.044;2023-02-12T00:46:28;37.27;;;20.23;;
20705;SDS011;10514;49.468;11.044;2023-02-12T00:48:54;34.50;;;19.17;;
20705;SDS011;10514;49.468;11.044;2023-02-12T00:51:20;38.03;;;17.73;;
20705;SDS011;10514;49.468;11.044;2023-02-12T00:53:46;32.83;;;17.80;;
20705;SDS011;10514;49.468;11.044;2023-02-12T00:56:12;36.33;;;19.23;;
20705;SDS011;10514;49.468;11.044;2023-02-12T00:58:38;35.63;;;19.70;;
20705;SDS011;10514;49.468;11.044;2023-02-12T01:01:04;39.57;;;19.90;;
20705;SDS011;10514;49.468;11.044;2023-02-12T01:03:29;34.43;;;18.10;;
20705;SDS011;10514;49.468;11.044;2023-02-12T01:05:55;35.60;;;18.63;;
20705;SDS011;10514;49.468;11.044;2023-02-12T01:08:21;31.67;;;18.73;;
20705;SDS011;10514;49.468;11.044;2023-02-12T01:10:54;36.63;;;18.80;;
20705;SDS011;10514;49.468;11.044;2023-02-12T01:13:21;31.73;;;18.23;;
20705;SDS011;10514;49.468;11.044;2023-02-12T01:15:47;34.63;;;18.40;;
20705;SDS011;10514;49.468;11.044;2023-02-12T01:18:13;34.97;;;18.37;;
20705;SDS011;10514;49.468;11.044;2023-02-12T01:20:40;35.63;;;16.90;;
20705;SDS011;10514;49.468;11.044;2023-02-12T01:23:06;31.07;;;17.27;;
20705;SDS011;10514;49.468;11.044;2023-02-12T01:25:32;34.47;;;18.00;;
20705;SDS011;10514;49.468;11.044;2023-02-12T01:27:58;37.10;;;19.80;;
20705;SDS011;10514;49.468;11.044;2023-02-12T01:30:24;32.13;;;17.43;;
20705;SDS011;10514;49.468;11.044;2023-02-12T01:32:49;30.13;;;17.47;;
20705;SDS011;10514;49.468;11.044;2023-02-12T01:35:15;33.20;;;18.17;;
20705;SDS011;10514;49.468;11.044;2023-02-12T01:37:41;33.90;;;18.40;;
20705;SDS011;10514;49.468;11.044;2023-02-12T01:40:07;32.33;;;17.53;;
20705;SDS011;10514;49.468;11.044;2023-02-12T01:42:34;35.50;;;19.27;;
20705;SDS011;10514;49.468;11.044;2023-02-12T01:47:42;34.20;;;17.30;;
20705;SDS011;10514;49.468;11.044;2023-02-12T01:50:12;36.23;;;18.40;;
20705;SDS011;10514;49.468;11.044;2023-02-12T01:52:40;35.50;;;18.20;;
20705;SDS011;10514;49.468;11.044;2023-02-12T01:55:08;36.07;;;18.83;;
20705;SDS011;10514;49.468;11.044;2023-02-12T01:57:39;30.90;;;17.60;;
20705;SDS011;10514;49.468;11.044;2023-02-12T02:00:07;30.17;;;18.13;;
20705;SDS011;10514;49.468;11.044;2023-02-12T02:02:35;31.33;;;17.00;;
20705;SDS011;10514;49.468;11.044;2023-02-12T02:05:02;40.43;;;21.03;;
20705;SDS011;10514;49.468;11.044;2023-02-12T02:07:28;30.87;;;16.90;;
20705;SDS011;10514;49.468;11.044;2023-02-12T02:09:55;32.53;;;18.67;;
20705;SDS011;10514;49.468;11.044;2023-02-12T02:12:21;32.70;;;18.30;;
20705;SDS011;10514;49.468;11.044;2023-02-12T02:15:07;35.17;;;18.40;;
20705;SDS011;10514;49.468;11.044;2023-02-12T02:17:45;32.20;;;17.90;;
20705;SDS011;10514;49.468;11.044;2023-02-12T02:25:49;40.80;;;18.83;;
20705;SDS011;10514;49.468;11.044;2023-02-12T02:28:41;34.80;;;19.43;;
20705;SDS011;10514;49.468;11.044;2023-02-12T02:31:16;30.40;;;16.80;;
20705;SDS011;10514;49.468;11.044;2023-02-12T02:33:53;35.43;;;17.90;;
20705;SDS011;10514;49.468;11.044;2023-02-12T02:36:30;35.57;;;19.53;;
20705;SDS011;10514;49.468;11.044;2023-02-12T02:41:37;34.63;;;18.97;;
20705;SDS011;10514;49.468;11.044;2023-02-12T02:44:12;33.33;;;17.60;;
20705;SDS011;10514;49.468;11.044;2023-02-12T02:46:46;35.90;;;19.10;;
20705;SDS011;10514;49.468;11.044;2023-02-12T02:49:26;33.77;;;17.63;;
20705;SDS011;10514;49.468;11.044;2023-02-12T02:52:00;35.37;;;18.17;;
20705;SDS011;10514;49.468;11.044;2023-02-12T02:57:04;35.20;;;18.07;;
20705;SDS011;10514;49.468;11.044;2023-02-12T02:59:48;34.67;;;17.37;;
20705;SDS011;10514;49.468;11.044;2023-02-12T03:02:19;37.33;;;18.83;;
20705;SDS011;10514;49.468;11.044;2023-02-12T03:04:50;35.40;;;18.00;;
20705;SDS011;10514;49.468;11.044;2023-02-12T03:07:31;37.33;;;20.00;;
20705;SDS011;10514;49.468;11.044;2023-02-12T03:10:03;35.60;;;20.00;;
20705;SDS011;10514;49.468;11.044;2023-02-12T03:12:32;33.90;;;19.03;;
20705;SDS011;10514;49.468;11.044;2023-02-12T03:15:03;39.50;;;20.23;;
20705;SDS011;10514;49.468;11.044;2023-02-12T03:17:34;33.07;;;17.60;;
20705;SDS011;10514;49.468;11.044;2023-02-12T03:22:36;33.13;;;17.40;;
20705;SDS011;10514;49.468;11.044;2023-02-12T03:25:14;35.57;;;18.57;;
20705;SDS011;10514;49.468;11.044;2023-02-12T03:27:43;37.07;;;19.20;;
20705;SDS011;10514;49.468;11.044;2023-02-12T03:30:13;41.30;;;20.13;;
20705;SDS011;10514;49.468;11.044;2023-02-12T03:35:33;33.50;;;17.20;;
20705;SDS011;10514;49.468;11.044;2023-02-12T03:43:41;40.13;;;20.30;;
20705;SDS011;10514;49.468;11.044;2023-02-12T03:53:46;41.00;;;21.10;;
20705;SDS011;10514;49.468;11.044;2023-02-12T03:56:14;32.77;;;18.97;;
20705;SDS011;10514;49.468;11.044;2023-02-12T03:58:42;35.70;;;19.63;;
20705;SDS011;10514;49.468;11.044;2023-02-12T04:01:09;32.40;;;18.67;;
20705;SDS011;10514;49.468;11.044;2023-02-12T04:03:35;42.73;;;21.67;;
20705;SDS011;10514;49.468;11.044;2023-02-12T04:06:01;46.33;;;22.73;;
20705;SDS011;10514;49.468;11.044;2023-02-12T04:08:27;40.13;;;19.63;;
20705;SDS011;10514;49.468;11.044;2023-02-12T04:11:12;38.77;;;21.20;;
20705;SDS011;10514;49.468;11.044;2023-02-12T04:13:55;40.00;;;20.23;;
20705;SDS011;10514;49.468;11.044;2023-02-12T04:16:28;39.37;;;19.77;;
20705;SDS011;10514;49.468;11.044;2023-02-12T04:18:59;38.20;;;19.63;;
20705;SDS011;10514;49.468;11.044;2023-02-12T04:26:31;39.13;;;19.20;;
20705;SDS011;10514;49.468;11.044;2023-02-12T04:29:21;39.33;;;20.60;;
20705;SDS011;10514;49.468;11.044;2023-02-12T04:31:53;35.70;;;17.57;;
20705;SDS011;10514;49.468;11.044;2023-02-12T04:34:30;39.47;;;19.63;;
20705;SDS011;10514;49.468;11.044;2023-02-12T04:39:25;41.43;;;20.37;;
20705;SDS011;10514;49.468;11.044;2023-02-12T04:41:52;39.80;;;22.13;;
20705;SDS011;10514;49.468;11.044;2023-02-12T04:44:20;39.63;;;21.13;;
20705;SDS011;10514;49.468;11.044;2023-02-12T04:46:47;42.27;;;22.37;;
20705;SDS011;10514;49.468;11.044;2023-02-12T04:49:14;40.37;;;21.67;;
20705;SDS011;10514;49.468;11.044;2023-02-12T04:51:40;37.90;;;19.70;;
20705;SDS011;10514;49.468;11.044;2023-02-12T04:54:06;44.73;;;20.63;;
20705;SDS011;10514;49.468;11.044;2023-02-12T04:56:32;40.90;;;20.53;;
20705;SDS011;10514;49.468;11.044;2023-02-12T04:58:58;38.17;;;19.07;;
20705;SDS011;10514;49.468;11.044;2023-02-12T05:01:24;36.60;;;20.43;;
20705;SDS011;10514;49.468;11.044;2023-02-12T05:03:50;39.93;;;19.93;;
20705;SDS011;10514;49.468;11.044;2023-02-12T05:06:16;39.87;;;20.83;;
20705;SDS011;10514;49.468;11.044;2023-02-12T05:08:42;38.53;;;19.67;;
20705;SDS011;10514;49.468;11.044;2023-02-12T05:11:09;40.17;;;20.83;;
20705;SDS011;10514;49.468;11.044;2023-02-12T05:13:35;46.07;;;21.97;;
20705;SDS011;10514;49.468;11.044;2023-02-12T05:16:05;38.90;;;21.13;;
20705;SDS011;10514;49.468;11.044;2023-02-12T05:18:31;34.53;;;17.87;;
20705;SDS011;10514;49.468;11.044;2023-02-12T05:20:58;40.20;;;20.93;;
20705;SDS011;10514;49.468;11.044;2023-02-12T05:23:28;39.60;;;21.23;;
20705;SDS011;10514;49.468;11.044;2023-02-12T05:25:56;42.77;;;21.30;;
20705;SDS011;10514;49.468;11.044;2023-02-12T05:28:23;46.97;;;22.77;;
20705;SDS011;10514;49.468;11.044;2023-02-12T05:30:49;43.80;;;22.23;;
20705;SDS011;10514;49.468;11.044;2023-02-12T05:33:15;41.80;;;21.43;;
20705;SDS011;10514;49.468;11.044;2023-02-12T05:35:41;43.30;;;21.03;;
20705;SDS011;10514;49.468;11.044;2023-02-12T05:38:07;51.47;;;23.20;;
20705;SDS011;10514;49.468;11.044;2023-02-12T05:40:33;42.43;;;20.93;;
20705;SDS011;10514;49.468;11.044;2023-02-12T05:42:59;45.03;;;22.50;;
20705;SDS011;10514;49.468;11.044;2023-02-12T05:45:25;50.83;;;24.17;;
20705;SDS011;10514;49.468;11.044;2023-02-12T05:47:53;49.93;;;23.23;;
20705;SDS011;10514;49.468;11.044;2023-02-12T05:50:19;40.30;;;21.40;;
20705;SDS011;10514;49.468;11.044;2023-02-12T05:52:44;48.20;;;24.80;;
20705;SDS011;10514;49.468;11.044;2023-02-12T05:55:10;48.97;;;24.93;;
20705;SDS011;10514;49.468;11.044;2023-02-12T05:57:36;53.03;;;25.40;;
20705;SDS011;10514;49.468;11.044;2023-02-12T06:00:03;44.83;;;22.30;;
20705;SDS011;10514;49.468;11.044;2023-02-12T06:02:29;57.10;;;22.93;;
20705;SDS011;10514;49.468;11.044;2023-02-12T06:04:55;49.57;;;21.67;;
20705;SDS011;10514;49.468;11.044;2023-02-12T06:07:21;39.70;;;21.23;;
20705;SDS011;10514;49.468;11.044;2023-02-12T06:09:47;45.13;;;22.10;;
20705;SDS011;10514;49.468;11.044;2023-02-12T06:12:13;46.40;;;22.47;;
20705;SDS011;10514;49.468;11.044;2023-02-12T06:14:39;43.93;;;21.37;;
20705;SDS011;10514;49.468;11.044;2023-02-12T06:17:05;39.03;;;20.67;;
20705;SDS011;10514;49.468;11.044;2023-02-12T06:19:31;42.00;;;21.07;;
20705;SDS011;10514;49.468;11.044;2023-02-12T06:21:57;44.60;;;22.23;;
20705;SDS011;10514;49.468;11.044;2023-02-12T06:24:23;41.47;;;19.90;;
20705;SDS011;10514;49.468;11.044;2023-02-12T06:26:50;39.47;;;20.07;;
20705;SDS011;10514;49.468;11.044;2023-02-12T06:29:16;40.77;;;19.80;;
20705;SDS011;10514;49.468;11.044;2023-02-12T06:31:42;44.17;;;21.80;;
20705;SDS011;10514;49.468;11.044;2023-02-12T06:34:09;44.33;;;22.10;;
20705;SDS011;10514;49.468;11.044;2023-02-12T06:36:36;39.30;;;20.47;;
20705;SDS011;10514;49.468;11.044;2023-02-12T06:39:02;44.70;;;20.83;;
20705;SDS011;10514;49.468;11.044;2023-02-12T06:41:28;38.17;;;20.30;;
20705;SDS011;10514;49.468;11.044;2023-02-12T06:43:54;38.97;;;20.20;;
20705;SDS011;10514;49.468;11.044;2023-02-12T06:46:20;41.60;;;19.97;;
20705;SDS011;10514;49.468;11.044;2023-02-12T06:48:46;45.23;;;20.43;;
20705;SDS011;10514;49.468;11.044;2023-02-12T06:51:17;48.27;;;23.33;;
20705;SDS011;10514;49.468;11.044;2023-02-12T06:53:45;43.93;;;22.07;;
20705;SDS011;10514;49.468;11.044;2023-02-12T06:56:12;45.93;;;21.87;;
20705;SDS011;10514;49.468;11.044;2023-02-12T06:58:39;38.37;;;20.80;;
20705;SDS011;10514;49.468;11.044;2023-02-12T07:03:48;41.57;;;21.10;;
20705;SDS011;10514;49.468;11.044;2023-02-12T07:06:15;52.57;;;24.87;;
20705;SDS011;10514;49.468;11.044;2023-02-12T07:08:41;49.03;;;24.67;;
20705;SDS011;10514;49.468;11.044;2023-02-12T07:11:07;47.43;;;23.27;;
20705;SDS011;10514;49.468;11.044;2023-02-12T07:13:33;46.30;;;23.00;;
20705;SDS011;10514;49.468;11.044;2023-02-12T07:16:09;50.77;;;23.67;;
20705;SDS011;10514;49.468;11.044;2023-02-12T07:18:37;49.20;;;25.13;;
20705;SDS011;10514;49.468;11.044;2023-02-12T07:21:03;49.47;;;23.77;;
20705;SDS011;10514;49.468;11.044;2023-02-12T07:23:30;46.33;;;23.53;;
20705;SDS011;10514;49.468;11.044;2023-02-12T07:25:56;45.47;;;23.77;;
20705;SDS011;10514;49.468;11.044;2023-02-12T07:28:23;46.80;;;24.60;;
20705;SDS011;10514;49.468;11.044;2023-02-12T07:30:49;46.00;;;23.90;;
20705;SDS011;10514;49.468;11.044;2023-02-12T07:33:15;46.47;;;22.73;;
20705;SDS011;10514;49.468;11.044;2023-02-12T07:35:41;42.83;;;22.53;;
20705;SDS011;10514;49.468;11.044;2023-02-12T07:38:07;53.00;;;24.47;;
20705;SDS011;10514;49.468;11.044;2023-02-12T07:40:33;50.33;;;24.97;;
20705;SDS011;10514;49.468;11.044;2023-02-12T07:42:59;44.80;;;22.77;;
20705;SDS011;10514;49.468;11.044;2023-02-12T07:45:24;43.83;;;23.50;;
20705;SDS011;10514;49.468;11.044;2023-02-12T07:47:50;44.00;;;23.60;;
20705;SDS011;10514;49.468;11.044;2023-02-12T07:50:16;46.57;;;22.73;;
20705;SDS011;10514;49.468;11.044;2023-02-12T07:52:42;47.03;;;24.60;;
20705;SDS011;10514;49.468;11.044;2023-02-12T07:55:08;45.60;;;23.13;;
20705;SDS011;10514;49.468;11.044;2023-02-12T07:57:35;45.10;;;24.10;;
20705;SDS011;10514;49.468;11.044;2023-02-12T08:00:00;51.67;;;26.87;;
20705;SDS011;10514;49.468;11.044;2023-02-12T08:02:26;36.80;;;19.97;;
20705;SDS011;10514;49.468;11.044;2023-02-12T08:04:56;45.57;;;23.57;;
20705;SDS011;10514;49.468;11.044;2023-02-12T08:07:22;48.70;;;24.43;;
20705;SDS011;10514;49.468;11.044;2023-02-12T08:09:48;48.20;;;23.93;;
20705;SDS011;10514;49.468;11.044;2023-02-12T08:12:15;48.40;;;24.20;;
20705;SDS011;10514;49.468;11.044;2023-02-12T08:14:41;48.87;;;25.53;;
20705;SDS011;10514;49.468;11.044;2023-02-12T08:17:07;49.27;;;24.97;;
20705;SDS011;10514;49.468;11.044;2023-02-12T08:19:33;54.30;;;25.80;;
20705;SDS011;10514;49.468;11.044;2023-02-12T08:21:59;50.10;;;24.97;;
20705;SDS011;10514;49.468;11.044;2023-02-12T08:24:27;44.60;;;23.27;;
20705;SDS011;10514;49.468;11.044;2023-02-12T08:26:53;52.27;;;26.70;;
20705;SDS011;10514;49.468;11.044;2023-02-12T08:29:20;51.10;;;25.67;;
20705;SDS011;10514;49.468;11.044;2023-02-12T08:31:48;49.17;;;23.73;;
20705;SDS011;10514;49.468;11.044;2023-02-12T08:34:18;54.37;;;25.23;;
20705;SDS011;10514;49.468;11.044;2023-02-12T08:36:45;46.03;;;23.23;;
20705;SDS011;10514;49.468;11.044;2023-02-12T08:39:12;38.73;;;20.03;;
20705;SDS011;10514;49.468;11.044;2023-02-12T08:41:39;42.93;;;22.73;;
20705;SDS011;10514;49.468;11.044;2023-02-12T08:44:08;48.73;;;24.83;;
20705;SDS011;10514;49.468;11.044;2023-02-12T08:46:35;44.50;;;23.37;;
20705;SDS011;10514;49.468;11.044;2023-02-12T08:49:03;49.77;;;22.83;;
20705;SDS011;10514;49.468;11.044;2023-02-12T08:51:31;57.13;;;25.83;;
20705;SDS011;10514;49.468;11.044;2023-02-12T08:53:58;47.20;;;25.13;;
20705;SDS011;10514;49.468;11.044;2023-02-12T08:56:26;45.57;;;24.37;;
20705;SDS011;10514;49.468;11.044;2023-02-12T08:58:53;52.03;;;27.77;;
20705;SDS011;10514;49.468;11.044;2023-02-12T09:01:20;55.83;;;26.27;;
20705;SDS011;10514;49.468;11.044;2023-02-12T09:03:47;49.73;;;24.90;;
20705;SDS011;10514;49.468;11.044;2023-02-12T09:06:13;44.40;;;23.10;;
20705;SDS011;10514;49.468;11.044;2023-02-12T09:08:39;48.33;;;23.87;;
20705;SDS011;10514;49.468;11.044;2023-02-12T09:11:07;44.63;;;23.20;;
20705;SDS011;10514;49.468;11.044;2023-02-12T09:13:33;52.50;;;26.93;;
20705;SDS011;10514;49.468;11.044;2023-02-12T09:16:00;51.60;;;26.27;;
20705;SDS011;10514;49.468;11.044;2023-02-12T09:18:26;57.07;;;26.00;;
20705;SDS011;10514;49.468;11.044;2023-02-12T09:20:52;45.73;;;24.47;;
20705;SDS011;10514;49.468;11.044;2023-02-12T09:23:18;51.83;;;24.80;;
20705;SDS011;10514;49.468;11.044;2023-02-12T09:25:45;45.87;;;22.87;;
20705;SDS011;10514;49.468;11.044;2023-02-12T09:28:12;56.33;;;25.93;;
20705;SDS011;10514;49.468;11.044;2023-02-12T09:30:39;55.13;;;25.67;;
20705;SDS011;10514;49.468;11.044;2023-02-12T09:33:05;56.23;;;26.80;;
20705;SDS011;10514;49.468;11.044;2023-02-12T09:35:34;52.73;;;24.43;;
20705;SDS011;10514;49.468;11.044;2023-02-12T09:38:02;50.03;;;23.93;;
20705;SDS011;10514;49.468;11.044;2023-02-12T09:40:30;50.27;;;23.73;;
20705;SDS011;10514;49.468;11.044;2023-02-12T09:45:43;48.67;;;24.07;;
20705;SDS011;10514;49.468;11.044;2023-02-12T09:48:24;52.30;;;25.33;;
20705;SDS011;10514;49.468;11.044;2023-02-12T09:50:54;57.80;;;24.37;;
20705;SDS011;10514;49.468;11.044;2023-02-12T09:53:24;50.57;;;23.73;;
20705;SDS011;10514;49.468;11.044;2023-02-12T09:55:53;49.10;;;22.63;;
20705;SDS011;10514;49.468;11.044;2023-02-12T10:01:08;49.70;;;22.73;;
20705;SDS011;10514;49.468;11.044;2023-02-12T10:03:37;46.97;;;23.30;;
20705;SDS011;10514;49.468;11.044;2023-02-12T10:06:04;57.07;;;25.17;;
20705;SDS011;10514;49.468;11.044;2023-02-12T10:08:44;51.30;;;24.83;;
20705;SDS011;10514;49.468;11.044;2023-02-12T10:11:38;61.17;;;26.17;;
20705;SDS011;10514;49.468;11.044;2023-02-12T10:16:41;52.37;;;24.77;;
20705;SDS011;10514;49.468;11.044;2023-02-12T10:21:39;57.67;;;25.70;;
20705;SDS011;10514;49.468;11.044;2023-02-12T10:24:19;51.30;;;23.27;;
20705;SDS011;10514;49.468;11.044;2023-02-12T10:26:53;48.50;;;22.37;;
20705;SDS011;10514;49.468;11.044;2023-02-12T10:29:22;36.67;;;18.07;;
20705;SDS011;10514;49.468;11.044;2023-02-12T10:31:50;30.63;;;14.47;;
20705;SDS011;10514;49.468;11.044;2023-02-12T10:34:18;27.10;;;13.57;;
20705;SDS011;10514;49.468;11.044;2023-02-12T10:36:46;26.60;;;11.83;;
20705;SDS011;10514;49.468;11.044;2023-02-12T10:39:20;22.17;;;10.37;;
20705;SDS011;10514;49.468;11.044;2023-02-12T10:41:57;24.23;;;11.60;;
20705;SDS011;10514;49.468;11.044;2023-02-12T10:44:26;26.07;;;13.60;;
20705;SDS011;10514;49.468;11.044;2023-02-12T10:46:52;28.60;;;13.30;;
20705;SDS011;10514;49.468;11.044;2023-02-12T10:49:19;28.80;;;13.93;;
20705;SDS011;10514;49.468;11.044;2023-02-12T10:56:58;39.30;;;17.73;;
20705;SDS011;10514;49.468;11.044;2023-02-12T10:59:24;43.07;;;18.90;;
20705;SDS011;10514;49.468;11.044;2023-02-12T11:01:50;38.17;;;18.67;;
20705;SDS011;10514;49.468;11.044;2023-02-12T11:04:26;33.80;;;17.03;;
20705;SDS011;10514;49.468;11.044;2023-02-12T11:07:01;32.80;;;16.30;;
20705;SDS011;10514;49.468;11.044;2023-02-12T11:09:33;34.33;;;15.50;;
20705;SDS011;10514;49.468;11.044;2023-02-12T11:12:00;39.53;;;17.43;;
20705;SDS011;10514;49.468;11.044;2023-02-12T11:14:26;28.20;;;14.70;;
20705;SDS011;10514;49.468;11.044;2023-02-12T11:16:56;32.83;;;13.97;;
20705;SDS011;10514;49.468;11.044;2023-02-12T11:19:24;34.00;;;15.47;;
20705;SDS011;10514;49.468;11.044;2023-02-12T11:21:52;34.07;;;16.00;;
20705;SDS011;10514;49.468;11.044;2023-02-12T11:24:32;33.30;;;14.80;;
20705;SDS011;10514;49.468;11.044;2023-02-12T11:29:43;33.93;;;14.20;;
20705;SDS011;10514;49.468;11.044;2023-02-12T11:32:17;35.37;;;14.93;;
20705;SDS011;10514;49.468;11.044;2023-02-12T11:34:43;30.03;;;15.43;;
20705;SDS011;10514;49.468;11.044;2023-02-12T11:37:13;36.60;;;17.37;;
20705;SDS011;10514;49.468;11.044;2023-02-12T11:39:40;37.20;;;16.37;;
20705;SDS011;10514;49.468;11.044;2023-02-12T11:42:18;32.67;;;15.87;;
20705;SDS011;10514;49.468;11.044;2023-02-12T11:44:51;35.63;;;15.43;;
20705;SDS011;10514;49.468;11.044;2023-02-12T11:47:22;32.07;;;16.00;;
20705;SDS011;10514;49.468;11.044;2023-02-12T11:52:17;33.50;;;15.23;;
20705;SDS011;10514;49.468;11.044;2023-02-12T11:54:45;33.10;;;15.23;;
20705;SDS011;10514;49.468;11.044;2023-02-12T11:59:56;31.73;;;15.27;;
20705;SDS011;10514;49.468;11.044;2023-02-12T12:02:24;32.73;;;15.80;;
20705;SDS011;10514;49.468;11.044;2023-02-12T12:04:53;33.67;;;15.07;;
20705;SDS011;10514;49.468;11.044;2023-02-12T12:07:22;33.33;;;15.90;;
20705;SDS011;10514;49.468;11.044;2023-02-12T12:10:04;34.03;;;17.37;;
20705;SDS011;10514;49.468;11.044;2023-02-12T12:12:40;33.10;;;15.53;;
20705;SDS011;10514;49.468;11.044;2023-02-12T12:15:16;35.27;;;15.63;;
20705;SDS011;10514;49.468;11.044;2023-02-12T12:20:51;35.07;;;16.50;;
20705;SDS011;10514;49.468;11.044;2023-02-12T12:23:20;35.10;;;16.50;;
20705;SDS011;10514;49.468;11.044;2023-02-12T12:25:56;36.47;;;17.93;;
20705;SDS011;10514;49.468;11.044;2023-02-12T12:30:59;31.23;;;16.03;;
20705;SDS011;10514;49.468;11.044;2023-02-12T12:33:37;35.73;;;16.93;;
20705;SDS011;10514;49.468;11.044;2023-02-12T12:48:52;33.17;;;16.60;;
20705;SDS011;10514;49.468;11.044;2023-02-12T12:51:27;33.97;;;16.47;;
20705;SDS011;10514;49.468;11.044;2023-02-12T12:57:17;35.27;;;16.60;;
20705;SDS011;10514;49.468;11.044;2023-02-12T12:59:49;37.13;;;17.60;;
20705;SDS011;10514;49.468;11.044;2023-02-12T13:04:57;38.60;;;18.83;;
20705;SDS011;10514;49.468;11.044;2023-02-12T13:07:32;38.00;;;18.20;;
20705;SDS011;10514;49.468;11.044;2023-02-12T13:18:12;36.33;;;17.90;;
20705;SDS011;10514;49.468;11.044;2023-02-12T13:25:34;37.93;;;18.03;;
20705;SDS011;10514;49.468;11.044;2023-02-12T13:28:13;34.83;;;17.57;;
20705;SDS011;10514;49.468;11.044;2023-02-12T13:30:48;35.03;;;17.10;;
20705;SDS011;10514;49.468;11.044;2023-02-12T13:33:20;38.60;;;19.27;;
20705;SDS011;10514;49.468;11.044;2023-02-12T13:35:47;33.67;;;17.38;;
20705;SDS011;10514;49.468;11.044;2023-02-12T13:38:23;33.07;;;16.60;;
20705;SDS011;10514;49.468;11.044;2023-02-12T13:40:51;32.03;;;17.13;;
20705;SDS011;10514;49.468;11.044;2023-02-12T13:45:50;37.90;;;18.87;;
20705;SDS011;10514;49.468;11.044;2023-02-12T13:54:16;32.00;;;16.03;;
20705;SDS011;10514;49.468;11.044;2023-02-12T13:57:18;37.07;;;17.37;;
20705;SDS011;10514;49.468;11.044;2023-02-12T13:59:45;32.07;;;16.97;;
20705;SDS011;10514;49.468;11.044;2023-02-12T14:02:39;30.43;;;16.10;;
20705;SDS011;10514;49.468;11.044;2023-02-12T14:05:18;34.77;;;17.80;;
20705;SDS011;10514;49.468;11.044;2023-02-12T14:07:49;38.87;;;16.97;;
20705;SDS011;10514;49.468;11.044;2023-02-12T14:10:22;38.67;;;19.37;;
20705;SDS011;10514;49.468;11.044;2023-02-12T14:12:49;33.23;;;16.37;;
20705;SDS011;10514;49.468;11.044;2023-02-12T14:20:22;37.67;;;16.63;;
20705;SDS011;10514;49.468;11.044;2023-02-12T14:27:52;32.37;;;16.87;;
20705;SDS011;10514;49.468;11.044;2023-02-12T14:30:20;36.03;;;17.27;;
20705;SDS011;10514;49.468;11.044;2023-02-12T14:35:31;34.97;;;16.93;;
20705;SDS011;10514;49.468;11.044;2023-02-12T14:38:01;38.57;;;18.33;;
20705;SDS011;10514;49.468;11.044;2023-02-12T14:43:24;40.27;;;19.73;;
20705;SDS011;10514;49.468;11.044;2023-02-12T14:45:50;41.10;;;19.47;;
20705;SDS011;10514;49.468;11.044;2023-02-12T14:51:01;33.83;;;17.60;;
20705;SDS011;10514;49.468;11.044;2023-02-12T14:53:30;30.40;;;15.50;;
20705;SDS011;10514;49.468;11.044;2023-02-12T14:55:59;32.30;;;17.40;;
20705;SDS011;10514;49.468;11.044;2023-02-12T14:58:26;34.60;;;18.40;;
20705;SDS011;10514;49.468;11.044;2023-02-12T15:00:55;36.40;;;18.33;;
20705;SDS011;10514;49.468;11.044;2023-02-12T15:03:22;34.07;;;17.30;;
20705;SDS011;10514;49.468;11.044;2023-02-12T15:05:54;35.40;;;17.20;;
20705;SDS011;10514;49.468;11.044;2023-02-12T15:08:43;38.47;;;17.67;;
20705;SDS011;10514;49.468;11.044;2023-02-12T15:16:25;37.57;;;19.73;;
20705;SDS011;10514;49.468;11.044;2023-02-12T15:19:02;34.33;;;18.93;;
20705;SDS011;10514;49.468;11.044;2023-02-12T15:21:29;32.60;;;18.20;;
20705;SDS011;10514;49.468;11.044;2023-02-12T15:24:06;32.63;;;17.97;;
20705;SDS011;10514;49.468;11.044;2023-02-12T15:26:36;34.77;;;17.77;;
20705;SDS011;10514;49.468;11.044;2023-02-12T15:29:05;32.07;;;16.73;;
20705;SDS011;10514;49.468;11.044;2023-02-12T15:31:31;39.33;;;19.70;;
20705;SDS011;10514;49.468;11.044;2023-02-12T15:33:59;34.07;;;19.13;;
20705;SDS011;10514;49.468;11.044;2023-02-12T15:36:28;32.50;;;19.07;;
20705;SDS011;10514;49.468;11.044;2023-02-12T15:38:57;34.70;;;17.80;;
20705;SDS011;10514;49.468;11.044;2023-02-12T15:43:57;39.43;;;21.87;;
20705;SDS011;10514;49.468;11.044;2023-02-12T15:46:27;34.30;;;19.87;;
20705;SDS011;10514;49.468;11.044;2023-02-12T15:48:53;38.47;;;19.40;;
20705;SDS011;10514;49.468;11.044;2023-02-12T15:51:32;33.67;;;18.80;;
20705;SDS011;10514;49.468;11.044;2023-02-12T15:54:03;29.10;;;17.03;;
20705;SDS011;10514;49.468;11.044;2023-02-12T15:56:30;34.47;;;17.97;;
20705;SDS011;10514;49.468;11.044;2023-02-12T15:58:58;32.00;;;17.90;;
20705;SDS011;10514;49.468;11.044;2023-02-12T16:01:29;29.47;;;16.30;;
20705;SDS011;10514;49.468;11.044;2023-02-12T16:03:57;32.53;;;17.67;;
20705;SDS011;10514;49.468;11.044;2023-02-12T16:06:25;34.47;;;17.13;;
20705;SDS011;10514;49.468;11.044;2023-02-12T16:09:00;29.87;;;16.03;;
20705;SDS011;10514;49.468;11.044;2023-02-12T16:11:38;34.70;;;17.77;;
20705;SDS011;10514;49.468;11.044;2023-02-12T16:14:07;32.70;;;17.23;;
20705;SDS011;10514;49.468;11.044;2023-02-12T16:16:47;33.87;;;18.10;;
20705;SDS011;10514;49.468;11.044;2023-02-12T16:19:19;34.13;;;18.03;;
20705;SDS011;10514;49.468;11.044;2023-02-12T16:21:45;32.20;;;19.03;;
20705;SDS011;10514;49.468;11.044;2023-02-12T16:24:19;35.87;;;17.60;;
20705;SDS011;10514;49.468;11.044;2023-02-12T16:26:50;32.07;;;17.17;;
20705;SDS011;10514;49.468;11.044;2023-02-12T16:29:16;34.07;;;17.63;;
20705;SDS011;10514;49.468;11.044;2023-02-12T16:31:52;33.33;;;17.87;;
20705;SDS011;10514;49.468;11.044;2023-02-12T16:34:30;42.00;;;20.23;;
20705;SDS011;10514;49.468;11.044;2023-02-12T16:37:00;37.67;;;18.47;;